Time;durP1;ratioP1;P1;durP2;ratioP2;P2;SDS_P1;SDS_P2;PMS_P1;PMS_P2;Temp;Humidity;BMP_temperature;BMP_pressure;BME280_temperature;BME280_humidity;BME280_pressure;Samples;Min_cycle;Max_cycle;Signal;HPM_P1;HPM_P2
2024/01/31 00:00:22;;;;;;;84.55;41.30;;;;;;;;;;5003715;28;20467;-76
2024/01/31 00:02:48;;;;;;;91.50;42.80;;;;;;;;;;5003544;28;20011;-78
2024/01/31 00:05:15;;;;;;;85.20;42.63;;;;;;;;;;5005359;28;20017;-78
2024/01/31 00:08:01;;;;;;;88.68;42.45;;;;;;;;;;5001083;28;20486;-77
2024/01/31 00:10:28;;;;;;;73.85;35.45;;;;;;;;;;5012696;28;20033;-76
2024/01/31 00:12:54;;;;;;;71.30;33.50;;;;;;;;;;5008083;28;20017;-77
2024/01/31 00:15:21;;;;;;;68.68;33.15;;;;;;;;;;5008019;28;20360;-76
2024/01/31 00:18:01;;;;;;;67.70;34.55;;;;;;;;;;4994464;28;20106;-77
2024/01/31 00:20:27;;;;;;;64.65;31.13;;;;;;;;;;5008177;28;20376;-76
2024/01/31 00:22:54;;;;;;;65.35;30.85;;;;;;;;;;5007894;28;20018;-76
2024/01/31 00:25:21;;;;;;;58.30;28.50;;;;;;;;;;4998578;28;20451;-78
2024/01/31 00:27:47;;;;;;;63.60;27.70;;;;;;;;;;5004238;28;20017;-78
2024/01/31 00:30:14;;;;;;;78.15;32.13;;;;;;;;;;4997982;28;20029;-77
2024/01/31 00:32:40;;;;;;;76.53;33.10;;;;;;;;;;5003828;28;20069;-77
2024/01/31 00:35:08;;;;;;;73.47;31.58;;;;;;;;;;5007395;28;20018;-79
2024/01/31 00:37:33;;;;;;;70.82;32.38;;;;;;;;;;5002326;28;20074;-78
2024/01/31 00:39:59;;;;;;;65.07;33.42;;;;;;;;;;5011003;28;20018;-78
2024/01/31 00:42:24;;;;;;;80.50;34.78;;;;;;;;;;4998154;28;20018;-76
2024/01/31 00:44:50;;;;;;;90.05;39.70;;;;;;;;;;5006669;28;20512;-76
2024/01/31 00:47:15;;;;;;;86.40;37.50;;;;;;;;;;4999392;28;20010;-78
2024/01/31 00:49:41;;;;;;;66.47;31.25;;;;;;;;;;5005021;28;20015;-77
2024/01/31 00:52:06;;;;;;;62.72;31.63;;;;;;;;;;5003414;28;20058;-76
2024/01/31 00:54:31;;;;;;;46.38;23.58;;;;;;;;;;5003801;28;20018;-78
2024/01/31 00:56:57;;;;;;;57.17;28.23;;;;;;;;;;4998242;28;20014;-77
2024/01/31 00:59:23;;;;;;;39.53;21.58;;;;;;;;;;5002214;28;20106;-78
2024/01/31 01:01:51;;;;;;;41.65;22.73;;;;;;;;;;5011569;28;20076;-76
2024/01/31 01:04:16;;;;;;;38.53;19.63;;;;;;;;;;5003683;28;20034;-78
2024/01/31 01:06:42;;;;;;;35.35;18.42;;;;;;;;;;5005058;28;20089;-79
2024/01/31 01:09:08;;;;;;;34.97;18.13;;;;;;;;;;5004732;28;20108;-76
2024/01/31 01:11:34;;;;;;;35.00;17.77;;;;;;;;;;5006852;28;20084;-76
2024/01/31 01:14:00;;;;;;;33.60;19.10;;;;;;;;;;5006898;28;20010;-77
2024/01/31 01:16:25;;;;;;;32.25;18.15;;;;;;;;;;5001664;28;20102;-79
2024/01/31 01:18:52;;;;;;;25.58;15.63;;;;;;;;;;5004982;28;20345;-79
2024/01/31 01:21:18;;;;;;;25.80;14.27;;;;;;;;;;5005578;28;20006;-78
2024/01/31 01:23:45;;;;;;;23.73;13.48;;;;;;;;;;5022230;28;20041;-77
2024/01/31 01:26:11;;;;;;;23.30;13.25;;;;;;;;;;5004099;28;20024;-77
2024/01/31 01:28:38;;;;;;;21.45;13.32;;;;;;;;;;5006215;28;20049;-76
2024/01/31 01:31:03;;;;;;;20.27;12.65;;;;;;;;;;5012664;28;20464;-77
2024/01/31 01:33:31;;;;;;;25.10;13.85;;;;;;;;;;5006075;28;20018;-77
2024/01/31 01:35:56;;;;;;;22.13;14.00;;;;;;;;;;5006961;28;20030;-76
2024/01/31 01:38:21;;;;;;;19.80;12.30;;;;;;;;;;5011402;28;20046;-78
2024/01/31 01:40:47;;;;;;;21.58;13.32;;;;;;;;;;5018767;28;20006;-75
2024/01/31 01:43:19;;;;;;;20.55;12.20;;;;;;;;;;5013820;28;20448;-76
2024/01/31 01:45:44;;;;;;;19.38;12.85;;;;;;;;;;5011533;28;20349;-78
2024/01/31 01:48:11;;;;;;;21.60;13.00;;;;;;;;;;5009902;28;20052;-75
2024/01/31 01:50:37;;;;;;;20.75;12.80;;;;;;;;;;5006540;28;20065;-79
2024/01/31 01:53:04;;;;;;;19.58;12.82;;;;;;;;;;5009615;28;20026;-77
2024/01/31 01:55:29;;;;;;;20.02;12.55;;;;;;;;;;5009985;28;20054;-77
2024/01/31 01:57:55;;;;;;;18.67;12.35;;;;;;;;;;5010969;28;20017;-77
2024/01/31 02:00:21;;;;;;;20.73;12.35;;;;;;;;;;5009164;28;20050;-76
2024/01/31 02:02:47;;;;;;;22.60;13.40;;;;;;;;;;5009738;28;20447;-76
2024/01/31 02:05:12;;;;;;;23.73;12.90;;;;;;;;;;5011541;28;20028;-77
2024/01/31 02:07:38;;;;;;;18.33;12.18;;;;;;;;;;5010026;28;20475;-77
2024/01/31 02:10:05;;;;;;;24.98;12.73;;;;;;;;;;5013883;28;20033;-80
2024/01/31 02:12:38;;;;;;;23.17;12.90;;;;;;;;;;5013401;28;20026;-76
2024/01/31 02:15:04;;;;;;;19.95;12.15;;;;;;;;;;5025017;28;20034;-78
2024/01/31 02:17:31;;;;;;;19.42;13.02;;;;;;;;;;5006748;28;20392;-77
2024/01/31 02:19:57;;;;;;;21.95;12.73;;;;;;;;;;5008183;28;20038;-76
2024/01/31 02:22:22;;;;;;;22.67;12.38;;;;;;;;;;5006824;28;20017;-78
2024/01/31 02:24:48;;;;;;;20.80;13.00;;;;;;;;;;5006890;28;20048;-76
2024/01/31 02:27:13;;;;;;;20.33;12.57;;;;;;;;;;5005284;28;20044;-77
2024/01/31 02:29:38;;;;;;;19.60;12.80;;;;;;;;;;5003180;28;20119;-77
2024/01/31 02:32:04;;;;;;;21.77;12.98;;;;;;;;;;5002634;28;20456;-78
2024/01/31 02:34:30;;;;;;;19.50;13.10;;;;;;;;;;5002653;28;20022;-77
2024/01/31 02:36:55;;;;;;;21.83;13.77;;;;;;;;;;4999635;28;20045;-77
2024/01/31 02:39:21;;;;;;;23.35;14.48;;;;;;;;;;5002330;28;20017;-78
2024/01/31 02:41:46;;;;;;;22.10;14.00;;;;;;;;;;5010009;28;20017;-76
2024/01/31 02:44:12;;;;;;;21.98;14.30;;;;;;;;;;5008837;28;20045;-77
2024/01/31 02:46:37;;;;;;;24.02;14.30;;;;;;;;;;5005174;28;20050;-78
2024/01/31 02:49:02;;;;;;;23.00;14.20;;;;;;;;;;5012632;28;20021;-77
2024/01/31 02:51:28;;;;;;;24.23;15.38;;;;;;;;;;5006633;28;20022;-78
2024/01/31 02:53:53;;;;;;;27.55;14.75;;;;;;;;;;5007142;28;20046;-80
2024/01/31 02:56:19;;;;;;;21.10;13.57;;;;;;;;;;5008251;28;20049;-78
2024/01/31 02:58:45;;;;;;;22.98;13.70;;;;;;;;;;5002657;28;20056;-76
2024/01/31 03:01:10;;;;;;;23.45;13.63;;;;;;;;;;5005785;28;20057;-77
2024/01/31 03:03:35;;;;;;;21.30;13.35;;;;;;;;;;5003852;28;20105;-77
2024/01/31 03:06:00;;;;;;;21.42;13.52;;;;;;;;;;5003085;28;20455;-78
2024/01/31 03:08:26;;;;;;;21.02;12.90;;;;;;;;;;5005274;28;20034;-78
2024/01/31 03:10:52;;;;;;;20.48;13.20;;;;;;;;;;5003211;28;20019;-78
2024/01/31 03:13:17;;;;;;;21.60;13.07;;;;;;;;;;5005457;28;20022;-78
2024/01/31 03:15:42;;;;;;;22.42;12.80;;;;;;;;;;5003902;28;20501;-78
2024/01/31 03:18:07;;;;;;;20.50;13.18;;;;;;;;;;5006670;28;20049;-76
2024/01/31 03:20:36;;;;;;;23.58;13.40;;;;;;;;;;5003454;28;20378;-77
2024/01/31 03:23:02;;;;;;;20.65;13.32;;;;;;;;;;5004069;28;20006;-79
2024/01/31 03:25:27;;;;;;;22.05;13.00;;;;;;;;;;5004163;28;20031;-76
2024/01/31 03:27:53;;;;;;;23.50;13.10;;;;;;;;;;5002887;28;20022;-76
2024/01/31 03:30:18;;;;;;;20.48;12.52;;;;;;;;;;5010352;28;20077;-78
2024/01/31 03:32:43;;;;;;;24.58;13.82;;;;;;;;;;5004051;28;20018;-77
2024/01/31 03:35:09;;;;;;;21.90;12.82;;;;;;;;;;5004569;28;20025;-78
2024/01/31 03:37:34;;;;;;;23.63;14.27;;;;;;;;;;5002394;28;20053;-77
2024/01/31 03:40:00;;;;;;;20.30;13.98;;;;;;;;;;5004479;28;20071;-77
2024/01/31 03:42:26;;;;;;;25.00;13.80;;;;;;;;;;5004454;28;20025;-78
2024/01/31 03:44:51;;;;;;;20.58;13.05;;;;;;;;;;5002942;28;20038;-77
2024/01/31 03:47:19;;;;;;;22.60;13.40;;;;;;;;;;5003332;28;20337;-77
2024/01/31 03:49:45;;;;;;;26.40;14.45;;;;;;;;;;5004407;28;20026;-78
2024/01/31 03:52:11;;;;;;;25.88;14.23;;;;;;;;;;5001261;28;20026;-77
2024/01/31 03:54:36;;;;;;;28.50;15.23;;;;;;;;;;5004701;28;20033;-76
2024/01/31 03:57:01;;;;;;;24.30;13.82;;;;;;;;;;5001972;28;20022;-77
2024/01/31 03:59:27;;;;;;;20.10;14.02;;;;;;;;;;5002759;28;20029;-77
2024/01/31 04:01:52;;;;;;;21.33;13.73;;;;;;;;;;5000611;28;20046;-79
2024/01/31 04:04:17;;;;;;;22.25;13.70;;;;;;;;;;5000744;28;20021;-78
2024/01/31 04:06:43;;;;;;;23.42;14.55;;;;;;;;;;5001866;28;20029;-78
2024/01/31 04:09:08;;;;;;;25.02;15.38;;;;;;;;;;5004212;28;20065;-77
2024/01/31 04:11:34;;;;;;;23.17;15.18;;;;;;;;;;5000891;28;20458;-77
2024/01/31 04:14:00;;;;;;;22.40;13.77;;;;;;;;;;5000719;28;20033;-76
2024/01/31 04:16:26;;;;;;;21.38;14.35;;;;;;;;;;5003807;28;20031;-78
2024/01/31 04:18:51;;;;;;;25.67;15.85;;;;;;;;;;5002132;28;20030;-78
2024/01/31 04:21:23;;;;;;;22.77;14.35;;;;;;;;;;5003553;28;20018;-77
2024/01/31 04:23:48;;;;;;;25.73;14.60;;;;;;;;;;5000721;28;20058;-76
2024/01/31 04:26:14;;;;;;;27.85;14.77;;;;;;;;;;4999908;28;20014;-77
2024/01/31 04:28:40;;;;;;;25.33;15.55;;;;;;;;;;5001506;28;20014;-77
2024/01/31 04:31:11;;;;;;;24.65;15.65;;;;;;;;;;5016328;28;20387;-77
2024/01/31 04:33:36;;;;;;;22.73;14.80;;;;;;;;;;5000336;28;20018;-77
2024/01/31 04:36:01;;;;;;;24.35;15.52;;;;;;;;;;5003588;28;20114;-78
2024/01/31 04:38:27;;;;;;;25.55;14.80;;;;;;;;;;5004149;28;20053;-78
2024/01/31 04:40:52;;;;;;;27.02;16.33;;;;;;;;;;4999667;28;20037;-74
2024/01/31 04:43:17;;;;;;;25.35;15.52;;;;;;;;;;5004489;28;20026;-75
2024/01/31 04:45:43;;;;;;;27.88;15.60;;;;;;;;;;5002225;28;20045;-77
2024/01/31 04:48:09;;;;;;;23.83;14.80;;;;;;;;;;5004660;28;20030;-76
2024/01/31 04:50:34;;;;;;;23.98;15.48;;;;;;;;;;5002389;28;20033;-77
2024/01/31 04:53:00;;;;;;;23.83;14.52;;;;;;;;;;5004180;28;20018;-78
2024/01/31 04:55:25;;;;;;;20.40;14.20;;;;;;;;;;5004157;28;20038;-78
2024/01/31 04:57:51;;;;;;;29.25;14.80;;;;;;;;;;5000635;28;20033;-77
2024/01/31 05:00:17;;;;;;;25.77;15.30;;;;;;;;;;5002806;28;20018;-78
2024/01/31 05:02:42;;;;;;;22.10;14.75;;;;;;;;;;5001173;28;20042;-77
2024/01/31 05:05:08;;;;;;;25.23;15.15;;;;;;;;;;5005774;28;20014;-78
2024/01/31 05:07:33;;;;;;;26.42;15.40;;;;;;;;;;5007780;28;20541;-76
2024/01/31 05:09:58;;;;;;;23.38;15.70;;;;;;;;;;5005785;28;20371;-77
2024/01/31 05:12:24;;;;;;;26.40;15.35;;;;;;;;;;5006208;28;20434;-79
2024/01/31 05:14:49;;;;;;;22.27;15.63;;;;;;;;;;5007234;28;20080;-77
2024/01/31 05:17:15;;;;;;;27.92;15.52;;;;;;;;;;5005588;28;20025;-76
2024/01/31 05:19:41;;;;;;;21.15;14.48;;;;;;;;;;5003210;28;20113;-77
2024/01/31 05:22:06;;;;;;;23.20;15.50;;;;;;;;;;5006462;28;20114;-77
2024/01/31 05:24:32;;;;;;;27.48;15.35;;;;;;;;;;5005990;28;20180;-78
2024/01/31 05:27:03;;;;;;;24.38;15.35;;;;;;;;;;5004655;28;20105;-77
2024/01/31 05:29:29;;;;;;;26.77;16.15;;;;;;;;;;5007655;28;20464;-77
2024/01/31 05:31:55;;;;;;;23.58;14.93;;;;;;;;;;5007303;28;20029;-77
2024/01/31 05:34:26;;;;;;;29.15;15.30;;;;;;;;;;5007072;28;20081;-77
2024/01/31 05:36:52;;;;;;;28.10;15.98;;;;;;;;;;5005129;28;20133;-77
2024/01/31 05:39:17;;;;;;;26.17;15.55;;;;;;;;;;5005615;28;20121;-78
2024/01/31 05:41:44;;;;;;;32.45;16.55;;;;;;;;;;5004434;28;20069;-77
2024/01/31 05:44:10;;;;;;;26.58;15.82;;;;;;;;;;5007052;28;20084;-77
2024/01/31 05:46:36;;;;;;;27.63;16.13;;;;;;;;;;5005454;28;20013;-76
2024/01/31 05:49:03;;;;;;;26.60;15.30;;;;;;;;;;5008504;28;20010;-76
2024/01/31 05:51:28;;;;;;;29.67;16.52;;;;;;;;;;5010464;28;20045;-74
2024/01/31 05:53:54;;;;;;;28.92;16.60;;;;;;;;;;5011243;28;20022;-74
2024/01/31 05:56:21;;;;;;;24.55;15.55;;;;;;;;;;5002808;28;20105;-74
2024/01/31 05:58:47;;;;;;;22.88;15.75;;;;;;;;;;5005302;28;20022;-75
2024/01/31 06:01:12;;;;;;;26.92;16.05;;;;;;;;;;5007552;28;20513;-76
2024/01/31 06:03:37;;;;;;;30.58;16.65;;;;;;;;;;4999357;28;20073;-76
2024/01/31 06:06:03;;;;;;;24.45;15.23;;;;;;;;;;5003349;28;20025;-76
2024/01/31 06:08:31;;;;;;;27.38;16.73;;;;;;;;;;5004970;28;20062;-77
2024/01/31 06:11:08;;;;;;;27.27;16.92;;;;;;;;;;4995465;28;20062;-77
2024/01/31 06:13:51;;;;;;;27.25;16.02;;;;;;;;;;5012420;28;20037;-78
2024/01/31 06:16:17;;;;;;;25.98;15.70;;;;;;;;;;5003964;28;20025;-75
2024/01/31 06:18:44;;;;;;;26.38;16.27;;;;;;;;;;5003634;28;20026;-75
2024/01/31 06:21:09;;;;;;;27.90;16.00;;;;;;;;;;5000026;28;20094;-77
2024/01/31 06:23:41;;;;;;;34.25;17.30;;;;;;;;;;5009315;28;20121;-76
2024/01/31 06:26:07;;;;;;;28.52;16.95;;;;;;;;;;5012436;28;20541;-76
2024/01/31 06:28:38;;;;;;;27.10;16.05;;;;;;;;;;5016052;28;20033;-76
2024/01/31 06:31:27;;;;;;;27.98;16.48;;;;;;;;;;5016386;28;20088;-76
2024/01/31 06:33:52;;;;;;;27.73;17.58;;;;;;;;;;5015311;28;20065;-77
2024/01/31 06:36:19;;;;;;;29.60;16.60;;;;;;;;;;5008971;28;20030;-76
2024/01/31 06:38:47;;;;;;;31.83;17.92;;;;;;;;;;5014548;28;20062;-77
2024/01/31 06:41:17;;;;;;;27.83;16.98;;;;;;;;;;5016287;28;20468;-76
2024/01/31 06:43:43;;;;;;;30.08;17.83;;;;;;;;;;5016126;28;20479;-77
2024/01/31 06:46:18;;;;;;;31.48;17.10;;;;;;;;;;5017638;28;20072;-77
2024/01/31 06:48:43;;;;;;;29.10;16.35;;;;;;;;;;5018053;28;20110;-77
2024/01/31 06:51:11;;;;;;;27.67;17.77;;;;;;;;;;5018182;28;20072;-79
2024/01/31 06:53:37;;;;;;;31.17;18.63;;;;;;;;;;5020731;28;20033;-76
2024/01/31 06:56:03;;;;;;;33.90;19.10;;;;;;;;;;5020749;28;20391;-77
2024/01/31 06:58:28;;;;;;;29.40;18.33;;;;;;;;;;5020047;28;20026;-77
2024/01/31 07:00:57;;;;;;;29.45;17.42;;;;;;;;;;5021201;28;20028;-77
2024/01/31 07:03:24;;;;;;;32.42;18.20;;;;;;;;;;5022727;28;20072;-75
2024/01/31 07:05:49;;;;;;;30.10;18.10;;;;;;;;;;5019396;28;20018;-78
2024/01/31 07:08:14;;;;;;;39.22;17.98;;;;;;;;;;5020534;28;20547;-80
2024/01/31 07:10:41;;;;;;;31.58;18.35;;;;;;;;;;5020086;28;20026;-78
2024/01/31 07:13:07;;;;;;;29.20;17.83;;;;;;;;;;5013927;28;20404;-77
2024/01/31 07:15:33;;;;;;;33.92;18.13;;;;;;;;;;5015272;28;20084;-77
2024/01/31 07:18:00;;;;;;;29.08;17.00;;;;;;;;;;5015203;28;20037;-76
2024/01/31 07:20:26;;;;;;;33.15;19.10;;;;;;;;;;5013812;28;20014;-76
2024/01/31 07:22:53;;;;;;;26.48;17.38;;;;;;;;;;5015152;28;20029;-76
2024/01/31 07:25:27;;;;;;;32.75;18.80;;;;;;;;;;5015585;28;20013;-78
2024/01/31 07:27:54;;;;;;;32.78;18.92;;;;;;;;;;5001634;28;20030;-76
2024/01/31 07:30:21;;;;;;;30.48;17.10;;;;;;;;;;4995856;28;20460;-77
2024/01/31 07:32:53;;;;;;;30.20;17.55;;;;;;;;;;4995725;28;20033;-77
2024/01/31 07:35:24;;;;;;;31.38;18.92;;;;;;;;;;4995389;28;20053;-78
2024/01/31 07:37:49;;;;;;;31.70;18.88;;;;;;;;;;4994953;28;20053;-76
2024/01/31 07:40:16;;;;;;;26.45;17.35;;;;;;;;;;4995208;28;20026;-79
2024/01/31 07:42:42;;;;;;;27.00;16.98;;;;;;;;;;4995041;28;20022;-78
2024/01/31 07:45:11;;;;;;;29.67;17.65;;;;;;;;;;4989152;28;20370;-78
2024/01/31 07:47:38;;;;;;;32.42;17.58;;;;;;;;;;4994182;28;20025;-76
2024/01/31 07:50:08;;;;;;;28.15;17.88;;;;;;;;;;4994228;28;20472;-79
2024/01/31 07:52:34;;;;;;;30.17;17.33;;;;;;;;;;4996624;28;20022;-79
2024/01/31 07:55:00;;;;;;;30.55;17.88;;;;;;;;;;4979392;28;20484;-76
2024/01/31 07:57:26;;;;;;;29.02;17.73;;;;;;;;;;4994555;28;20022;-82
2024/01/31 07:59:52;;;;;;;27.85;17.63;;;;;;;;;;4995060;28;20298;-77
2024/01/31 08:02:32;;;;;;;32.08;17.70;;;;;;;;;;4990777;28;20026;-78
2024/01/31 08:04:59;;;;;;;31.23;18.52;;;;;;;;;;4992743;28;20061;-79
2024/01/31 08:07:25;;;;;;;27.75;17.50;;;;;;;;;;4990792;28;20162;-78
2024/01/31 08:09:50;;;;;;;31.50;18.88;;;;;;;;;;4991004;28;20061;-77
2024/01/31 08:12:15;;;;;;;29.30;17.33;;;;;;;;;;4988325;28;20049;-77
2024/01/31 08:14:41;;;;;;;29.25;18.15;;;;;;;;;;4993094;28;20419;-78
2024/01/31 08:17:07;;;;;;;33.08;18.08;;;;;;;;;;4994495;28;20053;-78
2024/01/31 08:19:41;;;;;;;30.75;19.33;;;;;;;;;;4993859;28;20030;-77
2024/01/31 08:22:09;;;;;;;32.45;17.88;;;;;;;;;;4995573;28;20424;-77
2024/01/31 08:24:35;;;;;;;31.88;17.65;;;;;;;;;;4992290;28;20056;-79
2024/01/31 08:27:01;;;;;;;31.45;16.58;;;;;;;;;;4995609;28;20018;-77
2024/01/31 08:29:28;;;;;;;32.03;17.88;;;;;;;;;;4993094;28;20069;-77
2024/01/31 08:31:54;;;;;;;29.40;18.25;;;;;;;;;;4993075;28;20030;-79
2024/01/31 08:34:20;;;;;;;30.13;17.52;;;;;;;;;;4992701;28;20524;-78
2024/01/31 08:36:46;;;;;;;29.58;17.38;;;;;;;;;;4992966;28;20041;-79
2024/01/31 08:39:12;;;;;;;29.27;18.80;;;;;;;;;;4998763;28;20030;-79
2024/01/31 08:41:38;;;;;;;26.17;17.02;;;;;;;;;;5000224;28;20010;-80
2024/01/31 08:44:03;;;;;;;28.45;17.75;;;;;;;;;;5000426;28;20443;-79
2024/01/31 08:46:28;;;;;;;34.72;20.10;;;;;;;;;;5000116;28;20050;-79
2024/01/31 08:48:54;;;;;;;36.08;18.85;;;;;;;;;;5000451;28;20026;-77
2024/01/31 08:51:30;;;;;;;28.58;17.67;;;;;;;;;;5001059;28;20037;-78
2024/01/31 08:53:56;;;;;;;32.45;18.38;;;;;;;;;;5000204;28;20093;-77
2024/01/31 08:56:22;;;;;;;33.40;17.48;;;;;;;;;;5000467;28;20052;-79
2024/01/31 08:58:47;;;;;;;33.17;19.08;;;;;;;;;;4999755;28;20033;-81
2024/01/31 09:01:13;;;;;;;37.22;19.05;;;;;;;;;;4999937;28;20146;-79
2024/01/31 09:03:38;;;;;;;33.33;18.55;;;;;;;;;;4999952;28;20022;-78
2024/01/31 09:06:06;;;;;;;31.67;17.73;;;;;;;;;;5002281;28;20042;-78
2024/01/31 09:08:33;;;;;;;30.92;18.38;;;;;;;;;;5000633;28;20061;-80
2024/01/31 09:11:07;;;;;;;30.77;19.55;;;;;;;;;;5000227;28;20026;-78
2024/01/31 09:13:35;;;;;;;31.85;17.85;;;;;;;;;;5001385;28;20049;-79
2024/01/31 09:16:01;;;;;;;30.08;18.48;;;;;;;;;;4982146;28;20072;-80
2024/01/31 09:18:30;;;;;;;32.92;20.05;;;;;;;;;;5000385;28;20060;-79
2024/01/31 09:20:57;;;;;;;35.25;20.30;;;;;;;;;;5000091;28;20022;-80
2024/01/31 09:23:23;;;;;;;35.10;19.70;;;;;;;;;;5001278;28;20053;-78
2024/01/31 09:25:51;;;;;;;35.33;19.50;;;;;;;;;;5002531;28;20041;-81
2024/01/31 09:28:17;;;;;;;38.00;20.20;;;;;;;;;;5002081;28;20498;-78
2024/01/31 09:30:44;;;;;;;35.90;20.95;;;;;;;;;;5001305;28;20022;-77
2024/01/31 09:33:09;;;;;;;31.77;20.65;;;;;;;;;;4997813;28;20015;-77
2024/01/31 09:35:35;;;;;;;34.50;20.17;;;;;;;;;;5000407;28;20038;-79
2024/01/31 09:38:00;;;;;;;33.47;19.73;;;;;;;;;;4997195;28;20484;-79
2024/01/31 09:40:25;;;;;;;33.40;22.08;;;;;;;;;;4999784;28;20019;-77
2024/01/31 09:42:54;;;;;;;31.92;18.45;;;;;;;;;;5003851;28;20371;-78
2024/01/31 09:45:21;;;;;;;31.70;18.15;;;;;;;;;;4999446;28;20010;-78
2024/01/31 09:47:47;;;;;;;34.17;19.65;;;;;;;;;;4999219;28;20043;-78
2024/01/31 09:50:12;;;;;;;34.95;19.55;;;;;;;;;;4995779;28;20020;-79
2024/01/31 09:52:39;;;;;;;37.92;20.60;;;;;;;;;;4997656;28;20037;-79
2024/01/31 09:55:08;;;;;;;32.70;20.63;;;;;;;;;;4995629;28;20027;-77
2024/01/31 09:57:34;;;;;;;33.05;20.63;;;;;;;;;;4995863;28;20021;-79
2024/01/31 10:00:00;;;;;;;36.22;20.85;;;;;;;;;;4994337;28;20022;-80
2024/01/31 10:02:27;;;;;;;32.55;20.48;;;;;;;;;;4996539;28;20101;-77
2024/01/31 10:04:52;;;;;;;31.63;20.38;;;;;;;;;;4997482;28;20088;-77
2024/01/31 10:07:23;;;;;;;38.60;19.73;;;;;;;;;;4994592;28;20524;-78
2024/01/31 10:09:49;;;;;;;30.58;18.75;;;;;;;;;;4997664;28;20022;-79
2024/01/31 10:12:17;;;;;;;32.05;19.00;;;;;;;;;;4995381;28;20027;-77
2024/01/31 10:14:43;;;;;;;30.90;18.77;;;;;;;;;;4996071;28;20030;-78
2024/01/31 10:17:08;;;;;;;35.80;20.50;;;;;;;;;;4996668;28;20080;-79
2024/01/31 10:19:34;;;;;;;28.90;19.60;;;;;;;;;;4997136;28;20387;-78
2024/01/31 10:21:59;;;;;;;36.15;19.55;;;;;;;;;;4997492;28;20022;-77
2024/01/31 10:24:24;;;;;;;29.33;17.30;;;;;;;;;;4994361;28;20028;-78
2024/01/31 10:26:50;;;;;;;33.15;15.68;;;;;;;;;;4996744;28;20046;-76
2024/01/31 10:29:17;;;;;;;36.85;17.70;;;;;;;;;;4994486;28;20022;-77
2024/01/31 10:31:44;;;;;;;40.53;18.98;;;;;;;;;;4996697;28;20030;-76
2024/01/31 10:34:09;;;;;;;41.58;20.33;;;;;;;;;;4996098;28;20097;-81
2024/01/31 10:36:34;;;;;;;36.90;18.65;;;;;;;;;;4994497;28;20112;-78
2024/01/31 10:39:02;;;;;;;31.60;17.25;;;;;;;;;;4997774;28;20035;-79
2024/01/31 10:41:27;;;;;;;28.92;16.88;;;;;;;;;;4992785;28;20034;-79
2024/01/31 10:43:54;;;;;;;24.95;16.20;;;;;;;;;;4994877;28;20048;-78
2024/01/31 10:46:19;;;;;;;26.13;16.02;;;;;;;;;;4994896;28;20029;-78
2024/01/31 10:48:44;;;;;;;30.95;17.83;;;;;;;;;;4997178;28;20030;-77
2024/01/31 10:51:11;;;;;;;28.08;15.40;;;;;;;;;;4997186;28;20371;-79
2024/01/31 10:53:37;;;;;;;26.55;15.68;;;;;;;;;;4995972;28;20026;-77
2024/01/31 10:56:03;;;;;;;26.15;14.98;;;;;;;;;;4996582;28;20460;-77
2024/01/31 10:58:29;;;;;;;23.00;14.25;;;;;;;;;;4992164;28;20073;-80
2024/01/31 11:00:54;;;;;;;24.52;14.07;;;;;;;;;;4994600;28;20014;-77
2024/01/31 11:03:21;;;;;;;44.13;16.02;;;;;;;;;;4992514;28;20034;-78
2024/01/31 11:05:47;;;;;;;24.60;14.43;;;;;;;;;;4996275;28;20022;-77
2024/01/31 11:08:19;;;;;;;22.63;12.85;;;;;;;;;;4994362;28;20053;-78
2024/01/31 11:10:44;;;;;;;;;;;;;;;;;;4995749;28;20117;-78
2024/01/31 11:13:10;;;;;;;20.23;12.82;;;;;;;;;;4996982;28;19953;-78
2024/01/31 11:15:35;;;;;;;19.98;12.98;;;;;;;;;;4999023;28;20030;-79
2024/01/31 11:18:09;;;;;;;17.13;11.57;;;;;;;;;;5002305;28;20386;-79
2024/01/31 11:20:36;;;;;;;23.33;13.50;;;;;;;;;;5000534;28;20026;-80
2024/01/31 11:23:03;;;;;;;21.65;13.93;;;;;;;;;;4995359;28;20022;-77
2024/01/31 11:25:33;;;;;;;21.50;12.70;;;;;;;;;;4993727;28;20056;-78
2024/01/31 11:28:00;;;;;;;19.75;13.00;;;;;;;;;;4978740;28;20037;-79
2024/01/31 11:30:26;;;;;;;20.20;12.45;;;;;;;;;;4997723;28;20026;-78
2024/01/31 11:32:53;;;;;;;20.27;12.48;;;;;;;;;;4991913;28;20375;-81
2024/01/31 11:35:24;;;;;;;22.13;12.38;;;;;;;;;;4996724;28;20035;-79
2024/01/31 11:37:51;;;;;;;20.05;12.35;;;;;;;;;;4995095;28;20042;-79
2024/01/31 11:40:19;;;;;;;21.30;12.18;;;;;;;;;;4997640;28;20061;-77
2024/01/31 11:42:46;;;;;;;24.40;12.50;;;;;;;;;;4993816;28;20125;-82
2024/01/31 11:45:11;;;;;;;39.00;13.77;;;;;;;;;;4996356;28;20054;-80
2024/01/31 11:47:37;;;;;;;24.40;12.82;;;;;;;;;;4995333;28;20064;-82
2024/01/31 11:50:04;;;;;;;21.67;13.20;;;;;;;;;;4994016;28;20072;-80
2024/01/31 11:52:30;;;;;;;20.58;12.52;;;;;;;;;;4994913;28;20054;-83
2024/01/31 11:54:56;;;;;;;19.02;11.80;;;;;;;;;;4995109;28;20030;-81
2024/01/31 11:57:21;;;;;;;21.83;12.82;;;;;;;;;;4996618;28;20479;-80
2024/01/31 11:59:46;;;;;;;28.13;13.43;;;;;;;;;;4995388;28;20030;-79
2024/01/31 12:02:12;;;;;;;25.05;10.18;;;;;;;;;;4997675;28;20460;-82
2024/01/31 12:04:37;;;;;;;20.30;11.15;;;;;;;;;;4997998;28;20379;-80
2024/01/31 12:07:04;;;;;;;13.52;9.85;;;;;;;;;;4995643;28;20046;-80
2024/01/31 12:09:32;;;;;;;16.75;10.27;;;;;;;;;;4996000;28;20054;-81
2024/01/31 12:11:58;;;;;;;18.35;9.68;;;;;;;;;;4992564;28;20053;-80
2024/01/31 12:14:23;;;;;;;17.65;9.10;;;;;;;;;;4989868;28;20027;-80
2024/01/31 12:16:50;;;;;;;17.00;9.23;;;;;;;;;;4993546;28;20049;-78
2024/01/31 12:19:19;;;;;;;16.20;8.23;;;;;;;;;;4999636;28;20034;-81
2024/01/31 12:21:46;;;;;;;10.98;6.88;;;;;;;;;;4979648;28;20421;-82
2024/01/31 12:24:13;;;;;;;12.18;6.45;;;;;;;;;;4993712;28;20018;-81
2024/01/31 12:26:38;;;;;;;9.93;5.78;;;;;;;;;;4995529;28;20050;-80
2024/01/31 12:29:03;;;;;;;17.52;6.35;;;;;;;;;;4993521;28;20034;-80
2024/01/31 12:31:28;;;;;;;12.65;6.40;;;;;;;;;;5001673;28;20096;-79
2024/01/31 12:33:54;;;;;;;9.38;6.68;;;;;;;;;;4995543;28;20018;-79
2024/01/31 12:36:20;;;;;;;9.95;6.50;;;;;;;;;;4998703;28;20089;-80
2024/01/31 12:38:45;;;;;;;11.00;6.28;;;;;;;;;;5017134;28;20041;-83
2024/01/31 12:41:10;;;;;;;8.55;6.30;;;;;;;;;;5002000;28;20018;-81
2024/01/31 12:43:37;;;;;;;12.02;6.78;;;;;;;;;;5020500;28;20447;-81
2024/01/31 12:46:05;;;;;;;16.25;7.68;;;;;;;;;;4986539;28;20109;-77
2024/01/31 12:48:31;;;;;;;12.98;8.02;;;;;;;;;;5021465;28;20045;-78
2024/01/31 12:50:58;;;;;;;12.75;7.55;;;;;;;;;;5012109;28;20460;-79
2024/01/31 12:53:27;;;;;;;11.07;7.07;;;;;;;;;;5014930;28;20535;-80
2024/01/31 12:55:52;;;;;;;12.57;7.70;;;;;;;;;;5016179;28;20025;-78
2024/01/31 12:58:18;;;;;;;9.27;6.10;;;;;;;;;;4995583;28;20026;-81
2024/01/31 13:00:46;;;;;;;9.80;6.32;;;;;;;;;;4997233;28;20019;-78
2024/01/31 13:03:13;;;;;;;9.27;5.85;;;;;;;;;;4978495;28;20472;-79
2024/01/31 13:05:38;;;;;;;8.10;5.18;;;;;;;;;;4995315;28;20057;-80
2024/01/31 13:08:04;;;;;;;5.78;4.00;;;;;;;;;;4981039;28;20030;-80
2024/01/31 13:10:30;;;;;;;5.43;3.97;;;;;;;;;;5005466;28;20109;-78
2024/01/31 13:12:56;;;;;;;6.65;4.22;;;;;;;;;;5015024;28;20076;-78
2024/01/31 13:15:24;;;;;;;10.15;4.63;;;;;;;;;;4996222;28;20026;-79
2024/01/31 13:17:49;;;;;;;7.80;4.47;;;;;;;;;;4977503;28;20038;-78
2024/01/31 13:20:14;;;;;;;9.10;4.72;;;;;;;;;;4975933;28;20034;-80
2024/01/31 13:22:42;;;;;;;7.10;4.63;;;;;;;;;;4995080;28;20029;-77
2024/01/31 13:25:08;;;;;;;5.63;4.32;;;;;;;;;;5002088;28;20105;-80
2024/01/31 13:27:34;;;;;;;7.20;4.22;;;;;;;;;;5020247;28;20030;-80
2024/01/31 13:30:02;;;;;;;7.20;5.47;;;;;;;;;;4981710;28;20108;-81
2024/01/31 13:32:29;;;;;;;7.85;4.93;;;;;;;;;;4997805;28;20522;-83
2024/01/31 13:34:55;;;;;;;6.85;4.72;;;;;;;;;;5002274;28;20030;-80
2024/01/31 13:37:24;;;;;;;6.15;5.00;;;;;;;;;;5017430;28;20046;-80
2024/01/31 13:39:50;;;;;;;6.97;5.20;;;;;;;;;;5007525;28;20026;-81
2024/01/31 13:42:17;;;;;;;10.48;5.45;;;;;;;;;;5000070;28;20072;-79
2024/01/31 13:44:43;;;;;;;8.20;5.43;;;;;;;;;;4997191;28;20026;-80
2024/01/31 13:47:09;;;;;;;9.82;4.95;;;;;;;;;;4997466;28;20038;-82
2024/01/31 13:49:35;;;;;;;17.17;6.85;;;;;;;;;;4997827;28;20074;-81
2024/01/31 13:52:00;;;;;;;24.48;6.00;;;;;;;;;;4998986;28;20022;-83
2024/01/31 13:54:28;;;;;;;9.95;5.38;;;;;;;;;;4997701;28;20146;-80
2024/01/31 13:56:53;;;;;;;7.53;4.47;;;;;;;;;;4980169;28;20183;-80
2024/01/31 13:59:20;;;;;;;9.65;4.82;;;;;;;;;;4994880;28;20030;-79
2024/01/31 14:01:46;;;;;;;9.82;5.55;;;;;;;;;;4997283;28;20109;-78
2024/01/31 14:04:13;;;;;;;6.07;4.43;;;;;;;;;;4997076;28;20503;-77
2024/01/31 14:06:45;;;;;;;6.35;4.38;;;;;;;;;;4979382;28;20031;-79
2024/01/31 14:09:11;;;;;;;6.75;3.75;;;;;;;;;;4997036;28;20058;-78
2024/01/31 14:11:38;;;;;;;6.65;4.47;;;;;;;;;;4996840;28;20030;-78
2024/01/31 14:14:04;;;;;;;8.35;4.93;;;;;;;;;;4996129;28;20030;-79
2024/01/31 14:16:30;;;;;;;9.48;4.75;;;;;;;;;;4996360;28;20080;-79